Honeyville, Utah
Current Conditions -  °F | °C
As of 9:51 PM on Tuesday 25 Nov 2014 (Local Time) from KLGU Reporting Station
Overcast Overcast  
Wind Chill: 40°   Ceiling: 4500
Heat Index: 40°   Visibility: 10mi
Dew Point: 34°   Wind: 3mph
Humidity: 79%   Direction: NA
Pressure: 30.26"   Gusts: NA
Location:  41.64°N, 112.08°W
Report Text: KLGU 260451Z AUTO VRB03KT 10SM OVC045 04/01 A3026 RMK AO2 SLP251 T00440011
Loading
Personal Weather Stations






























Interactive Weather Map New forecast layout! Learn more

10-Day Weather Forecast

Advertisements
Track Severe Weather on mobile